sensor_id;sensor_type;location;lat;lon;timestamp;pressure;altitude;pressure_sealevel;temperature;humidity
53908;BME280;40469;47.998;7.794;2023-01-28T00:00:28;99516.09;;;-0.39;100.00
53908;BME280;40469;47.998;7.794;2023-01-28T00:02:54;99510.91;;;-0.40;100.00
53908;BME280;40469;47.998;7.794;2023-01-28T00:05:19;99520.31;;;-0.39;100.00
53908;BME280;40469;47.998;7.794;2023-01-28T00:07:48;99511.56;;;-0.44;100.00
53908;BME280;40469;47.998;7.794;2023-01-28T00:10:13;99515.19;;;-0.39;100.00
53908;BME280;40469;47.998;7.794;2023-01-28T00:12:38;99510.91;;;-0.40;100.00
53908;BME280;40469;47.998;7.794;2023-01-28T00:15:04;99510.06;;;-0.39;100.00
53908;BME280;40469;47.998;7.794;2023-01-28T00:17:30;99513.47;;;-0.40;100.00
53908;BME280;40469;47.998;7.794;2023-01-28T00:19:55;99512.63;;;-0.39;100.00
53908;BME280;40469;47.998;7.794;2023-01-28T00:22:20;99507.56;;;-0.38;100.00
53908;BME280;40469;47.998;7.794;2023-01-28T00:24:46;99501.63;;;-0.36;100.00
53908;BME280;40469;47.998;7.794;2023-01-28T00:27:12;99509.47;;;-0.33;100.00
53908;BME280;40469;47.998;7.794;2023-01-28T00:29:37;99506.00;;;-0.34;100.00
53908;BME280;40469;47.998;7.794;2023-01-28T00:32:03;99510.28;;;-0.34;100.00
53908;BME280;40469;47.998;7.794;2023-01-28T00:34:40;99504.38;;;-0.32;100.00
53908;BME280;40469;47.998;7.794;2023-01-28T00:37:05;99499.31;;;-0.30;100.00
53908;BME280;40469;47.998;7.794;2023-01-28T00:39:31;99509.56;;;-0.30;100.00
53908;BME280;40469;47.998;7.794;2023-01-28T00:41:56;99502.09;;;-0.26;100.00
53908;BME280;40469;47.998;7.794;2023-01-28T00:44:21;99501.22;;;-0.26;100.00
53908;BME280;40469;47.998;7.794;2023-01-28T00:46:50;99508.91;;;-0.26;100.00
53908;BME280;40469;47.998;7.794;2023-01-28T00:49:15;99513.22;;;-0.25;100.00
53908;BME280;40469;47.998;7.794;2023-01-28T00:51:40;99510.72;;;-0.24;100.00
53908;BME280;40469;47.998;7.794;2023-01-28T00:54:06;99503.84;;;-0.25;100.00
53908;BME280;40469;47.998;7.794;2023-01-28T00:56:35;99507.22;;;-0.26;100.00
53908;BME280;40469;47.998;7.794;2023-01-28T00:59:01;99515.00;;;-0.24;100.00
53908;BME280;40469;47.998;7.794;2023-01-28T01:01:26;99503.88;;;-0.23;100.00
53908;BME280;40469;47.998;7.794;2023-01-28T01:03:53;99509.84;;;-0.24;100.00
53908;BME280;40469;47.998;7.794;2023-01-28T01:06:28;99499.38;;;-0.29;100.00
53908;BME280;40469;47.998;7.794;2023-01-28T01:08:54;99498.59;;;-0.28;100.00
53908;BME280;40469;47.998;7.794;2023-01-28T01:11:19;99506.00;;;-0.34;100.00
53908;BME280;40469;47.998;7.794;2023-01-28T01:13:52;99490.44;;;-0.39;100.00
53908;BME280;40469;47.998;7.794;2023-01-28T01:16:20;99500.50;;;-0.43;100.00
53908;BME280;40469;47.998;7.794;2023-01-28T01:18:45;99499.34;;;-0.50;100.00
53908;BME280;40469;47.998;7.794;2023-01-28T01:21:16;99507.59;;;-0.57;100.00
53908;BME280;40469;47.998;7.794;2023-01-28T01:23:43;99504.88;;;-0.60;100.00
53908;BME280;40469;47.998;7.794;2023-01-28T01:26:09;99512.66;;;-0.59;100.00
53908;BME280;40469;47.998;7.794;2023-01-28T01:28:35;99508.47;;;-0.57;100.00
53908;BME280;40469;47.998;7.794;2023-01-28T01:31:12;99503.47;;;-0.53;100.00
53908;BME280;40469;47.998;7.794;2023-01-28T01:33:40;99507.13;;;-0.48;100.00
53908;BME280;40469;47.998;7.794;2023-01-28T01:36:07;99497.72;;;-0.48;100.00
53908;BME280;40469;47.998;7.794;2023-01-28T01:38:33;99495.16;;;-0.48;100.00
53908;BME280;40469;47.998;7.794;2023-01-28T01:41:01;99502.81;;;-0.49;100.00
53908;BME280;40469;47.998;7.794;2023-01-28T01:43:50;99499.09;;;-0.56;100.00
53908;BME280;40469;47.998;7.794;2023-01-28T01:46:40;99508.66;;;-0.52;100.00
53908;BME280;40469;47.998;7.794;2023-01-28T01:49:18;99498.41;;;-0.52;100.00
53908;BME280;40469;47.998;7.794;2023-01-28T01:51:47;99495.97;;;-0.49;100.00
53908;BME280;40469;47.998;7.794;2023-01-28T01:54:15;99506.31;;;-0.47;100.00
53908;BME280;40469;47.998;7.794;2023-01-28T01:56:43;99509.06;;;-0.43;100.00
53908;BME280;40469;47.998;7.794;2023-01-28T01:59:14;99504.81;;;-0.42;100.00
53908;BME280;40469;47.998;7.794;2023-01-28T02:01:42;99509.06;;;-0.43;100.00
53908;BME280;40469;47.998;7.794;2023-01-28T02:06:44;99507.47;;;-0.41;100.00
53908;BME280;40469;47.998;7.794;2023-01-28T02:09:30;99508.25;;;-0.42;100.00
53908;BME280;40469;47.998;7.794;2023-01-28T02:12:13;99502.50;;;-0.36;100.00
53908;BME280;40469;47.998;7.794;2023-01-28T02:14:45;99502.50;;;-0.36;100.00
53908;BME280;40469;47.998;7.794;2023-01-28T02:17:12;99500.78;;;-0.37;100.00
53908;BME280;40469;47.998;7.794;2023-01-28T02:20:03;99507.56;;;-0.38;100.00
53908;BME280;40469;47.998;7.794;2023-01-28T02:30:38;99502.94;;;-0.25;100.00
53908;BME280;40469;47.998;7.794;2023-01-28T02:33:14;99508.22;;;-0.22;100.00
53908;BME280;40469;47.998;7.794;2023-01-28T02:35:47;99505.78;;;-0.19;100.00
53908;BME280;40469;47.998;7.794;2023-01-28T02:38:23;99499.75;;;-0.20;100.00
53908;BME280;40469;47.998;7.794;2023-01-28T02:40:53;99508.47;;;-0.16;100.00
53908;BME280;40469;47.998;7.794;2023-01-28T02:43:32;99504.38;;;-0.12;100.00
53908;BME280;40469;47.998;7.794;2023-01-28T02:45:58;99498.53;;;-0.08;100.00
53908;BME280;40469;47.998;7.794;2023-01-28T02:48:43;99514.94;;;-0.05;100.00
53908;BME280;40469;47.998;7.794;2023-01-28T02:51:17;99511.50;;;-0.05;100.00
53908;BME280;40469;47.998;7.794;2023-01-28T02:53:56;99517.63;;;-0.02;100.00
53908;BME280;40469;47.998;7.794;2023-01-28T02:59:38;99515.88;;;-0.03;100.00
53908;BME280;40469;47.998;7.794;2023-01-28T03:07:28;99509.38;;;0.06;100.00
53908;BME280;40469;47.998;7.794;2023-01-28T03:09:57;99517.81;;;0.03;100.00
53908;BME280;40469;47.998;7.794;2023-01-28T03:12:29;99515.31;;;0.05;100.00
53908;BME280;40469;47.998;7.794;2023-01-28T03:15:20;99515.31;;;0.05;100.00
53908;BME280;40469;47.998;7.794;2023-01-28T03:18:24;99511.81;;;0.03;100.00
53908;BME280;40469;47.998;7.794;2023-01-28T03:21:14;99511.88;;;0.04;100.00
53908;BME280;40469;47.998;7.794;2023-01-28T03:24:06;99520.50;;;0.06;100.00
53908;BME280;40469;47.998;7.794;2023-01-28T03:29:51;99521.22;;;0.02;100.00
53908;BME280;40469;47.998;7.794;2023-01-28T03:32:38;99524.50;;;-0.01;100.00
53908;BME280;40469;47.998;7.794;2023-01-28T03:35:27;99525.41;;;0.00;100.00
53908;BME280;40469;47.998;7.794;2023-01-28T03:38:13;99533.97;;;0.01;100.00
53908;BME280;40469;47.998;7.794;2023-01-28T03:41:08;99522.78;;;-0.02;100.00
53908;BME280;40469;47.998;7.794;2023-01-28T03:43:35;99532.13;;;-0.02;100.00
53908;BME280;40469;47.998;7.794;2023-01-28T03:46:02;99528.72;;;-0.03;100.00
53908;BME280;40469;47.998;7.794;2023-01-28T03:48:28;99528.63;;;-0.04;100.00
53908;BME280;40469;47.998;7.794;2023-01-28T03:50:54;99536.19;;;-0.07;100.00
53908;BME280;40469;47.998;7.794;2023-01-28T03:53:21;99536.16;;;-0.09;100.00
53908;BME280;40469;47.998;7.794;2023-01-28T03:55:49;99536.34;;;-0.04;100.00
53908;BME280;40469;47.998;7.794;2023-01-28T03:58:16;99540.41;;;-0.09;100.00
53908;BME280;40469;47.998;7.794;2023-01-28T04:00:41;99536.16;;;-0.09;100.00
53908;BME280;40469;47.998;7.794;2023-01-28T04:03:12;99537.03;;;-0.08;100.00
53908;BME280;40469;47.998;7.794;2023-01-28T04:06:06;99536.97;;;-0.10;100.00
53908;BME280;40469;47.998;7.794;2023-01-28T04:08:30;99542.16;;;-0.08;100.00
53908;BME280;40469;47.998;7.794;2023-01-28T04:10:55;99540.41;;;-0.09;100.00
53908;BME280;40469;47.998;7.794;2023-01-28T04:13:21;99535.34;;;-0.08;100.00
53908;BME280;40469;47.998;7.794;2023-01-28T04:15:47;99544.72;;;-0.08;100.00
53908;BME280;40469;47.998;7.794;2023-01-28T04:18:12;99540.34;;;-0.11;100.00
53908;BME280;40469;47.998;7.794;2023-01-28T04:20:38;99543.53;;;-0.16;100.00
53908;BME280;40469;47.998;7.794;2023-01-28T04:23:05;99552.16;;;-0.14;100.00
53908;BME280;40469;47.998;7.794;2023-01-28T04:25:32;99542.53;;;-0.20;100.00
53908;BME280;40469;47.998;7.794;2023-01-28T04:27:58;99539.94;;;-0.20;100.00
53908;BME280;40469;47.998;7.794;2023-01-28T04:30:23;99539.16;;;-0.19;100.00
53908;BME280;40469;47.998;7.794;2023-01-28T04:32:48;99548.66;;;-0.16;100.00
53908;BME280;40469;47.998;7.794;2023-01-28T04:35:17;99549.50;;;-0.17;100.00
53908;BME280;40469;47.998;7.794;2023-01-28T04:37:43;99541.72;;;-0.19;100.00
53908;BME280;40469;47.998;7.794;2023-01-28T04:40:09;99545.09;;;-0.20;100.00
53908;BME280;40469;47.998;7.794;2023-01-28T04:42:35;99550.22;;;-0.20;100.00
53908;BME280;40469;47.998;7.794;2023-01-28T04:45:01;99553.78;;;-0.16;100.00
53908;BME280;40469;47.998;7.794;2023-01-28T04:47:26;99556.34;;;-0.16;100.00
53908;BME280;40469;47.998;7.794;2023-01-28T04:49:51;99558.19;;;-0.14;100.00
53908;BME280;40469;47.998;7.794;2023-01-28T04:52:17;99554.78;;;-0.13;100.00
53908;BME280;40469;47.998;7.794;2023-01-28T04:54:42;99565.00;;;-0.14;100.00
53908;BME280;40469;47.998;7.794;2023-01-28T04:57:07;99556.56;;;-0.12;100.00
53908;BME280;40469;47.998;7.794;2023-01-28T04:59:33;99563.44;;;-0.11;100.00
53908;BME280;40469;47.998;7.794;2023-01-28T05:01:58;99563.31;;;-0.14;100.00
53908;BME280;40469;47.998;7.794;2023-01-28T05:04:23;99565.13;;;-0.11;100.00
53908;BME280;40469;47.998;7.794;2023-01-28T05:06:49;99570.25;;;-0.11;100.00
53908;BME280;40469;47.998;7.794;2023-01-28T05:09:14;99559.19;;;-0.10;100.00
53908;BME280;40469;47.998;7.794;2023-01-28T05:11:40;99564.34;;;-0.10;100.00
53908;BME280;40469;47.998;7.794;2023-01-28T05:14:05;99562.84;;;-0.05;100.00
53908;BME280;40469;47.998;7.794;2023-01-28T05:16:30;99568.84;;;-0.05;100.00
53908;BME280;40469;47.998;7.794;2023-01-28T05:18:56;99574.91;;;-0.03;100.00
53908;BME280;40469;47.998;7.794;2023-01-28T05:21:21;99566.28;;;-0.05;100.00
53908;BME280;40469;47.998;7.794;2023-01-28T05:23:47;99561.88;;;-0.07;100.00
53908;BME280;40469;47.998;7.794;2023-01-28T05:26:12;99578.34;;;-0.02;100.00
53908;BME280;40469;47.998;7.794;2023-01-28T05:28:37;99579.97;;;-0.04;100.00
53908;BME280;40469;47.998;7.794;2023-01-28T05:31:04;99580.13;;;-0.01;100.00
53908;BME280;40469;47.998;7.794;2023-01-28T05:33:29;99587.75;;;-0.03;100.00
53908;BME280;40469;47.998;7.794;2023-01-28T05:35:55;99583.53;;;-0.01;100.00
53908;BME280;40469;47.998;7.794;2023-01-28T05:38:20;99579.41;;;0.03;100.00
53908;BME280;40469;47.998;7.794;2023-01-28T05:40:46;99582.88;;;0.04;100.00
53908;BME280;40469;47.998;7.794;2023-01-28T05:43:11;99584.38;;;-0.02;100.00
53908;BME280;40469;47.998;7.794;2023-01-28T05:45:37;99584.38;;;-0.02;100.00
53908;BME280;40469;47.998;7.794;2023-01-28T05:48:02;99587.88;;;0.01;100.00
53908;BME280;40469;47.998;7.794;2023-01-28T05:50:28;99591.09;;;-0.04;100.00
53908;BME280;40469;47.998;7.794;2023-01-28T05:52:53;99588.63;;;-0.02;100.00
53908;BME280;40469;47.998;7.794;2023-01-28T05:55:18;99590.44;;;0.01;100.00
53908;BME280;40469;47.998;7.794;2023-01-28T05:57:44;99592.16;;;0.00;100.00
53908;BME280;40469;47.998;7.794;2023-01-28T06:00:10;99588.69;;;-0.01;100.00
53908;BME280;40469;47.998;7.794;2023-01-28T06:02:36;99593.03;;;0.01;100.00
53908;BME280;40469;47.998;7.794;2023-01-28T06:05:02;99584.47;;;0.02;100.00
53908;BME280;40469;47.998;7.794;2023-01-28T06:07:27;99596.66;;;0.06;100.00
53908;BME280;40469;47.998;7.794;2023-01-28T06:09:53;99593.31;;;0.08;100.00
53908;BME280;40469;47.998;7.794;2023-01-28T06:12:18;99595.91;;;0.08;100.00
53908;BME280;40469;47.998;7.794;2023-01-28T06:14:43;99595.81;;;0.07;100.00
53908;BME280;40469;47.998;7.794;2023-01-28T06:17:09;99598.41;;;0.07;100.00
53908;BME280;40469;47.998;7.794;2023-01-28T06:19:34;99588.88;;;0.04;100.00
53908;BME280;40469;47.998;7.794;2023-01-28T06:22:00;99601.03;;;0.08;100.00
53908;BME280;40469;47.998;7.794;2023-01-28T06:24:25;99606.38;;;0.13;100.00
53908;BME280;40469;47.998;7.794;2023-01-28T06:26:50;99603.09;;;0.17;100.00
53908;BME280;40469;47.998;7.794;2023-01-28T06:29:16;99613.53;;;0.20;100.00
53908;BME280;40469;47.998;7.794;2023-01-28T06:31:41;99612.59;;;0.18;100.00
53908;BME280;40469;47.998;7.794;2023-01-28T06:34:08;99620.06;;;0.13;100.00
53908;BME280;40469;47.998;7.794;2023-01-28T06:36:34;99618.59;;;0.18;100.00
53908;BME280;40469;47.998;7.794;2023-01-28T06:39:00;99616.03;;;0.18;100.00
53908;BME280;40469;47.998;7.794;2023-01-28T06:41:25;99621.22;;;0.20;100.00
53908;BME280;40469;47.998;7.794;2023-01-28T06:43:51;99628.38;;;0.27;100.00
53908;BME280;40469;47.998;7.794;2023-01-28T06:46:16;99633.50;;;0.27;100.00
53908;BME280;40469;47.998;7.794;2023-01-28T06:48:42;99640.41;;;0.28;100.00
53908;BME280;40469;47.998;7.794;2023-01-28T06:51:07;99641.28;;;0.29;100.00
53908;BME280;40469;47.998;7.794;2023-01-28T06:53:32;99637.00;;;0.29;100.00
53908;BME280;40469;47.998;7.794;2023-01-28T06:55:58;99640.41;;;0.28;100.00
53908;BME280;40469;47.998;7.794;2023-01-28T06:58:23;99634.31;;;0.26;100.00
53908;BME280;40469;47.998;7.794;2023-01-28T07:00:48;99638.72;;;0.29;100.00
53908;BME280;40469;47.998;7.794;2023-01-28T07:03:14;99643.28;;;0.36;100.00
53908;BME280;40469;47.998;7.794;2023-01-28T07:05:39;99635.38;;;0.31;100.00
53908;BME280;40469;47.998;7.794;2023-01-28T07:08:05;99639.78;;;0.34;100.00
53908;BME280;40469;47.998;7.794;2023-01-28T07:10:30;99643.34;;;0.37;100.00
53908;BME280;40469;47.998;7.794;2023-01-28T07:12:55;99639.22;;;0.41;100.00
53908;BME280;40469;47.998;7.794;2023-01-28T07:15:21;99649.22;;;0.35;100.00
53908;BME280;40469;47.998;7.794;2023-01-28T07:17:46;99647.94;;;0.45;100.00
53908;BME280;40469;47.998;7.794;2023-01-28T07:20:13;99652.06;;;0.41;100.00
53908;BME280;40469;47.998;7.794;2023-01-28T07:22:40;99658.00;;;0.40;100.00
53908;BME280;40469;47.998;7.794;2023-01-28T07:25:06;99655.44;;;0.40;100.00
53908;BME280;40469;47.998;7.794;2023-01-28T07:27:32;99657.28;;;0.43;100.00
53908;BME280;40469;47.998;7.794;2023-01-28T07:29:58;99663.47;;;0.48;100.00
53908;BME280;40469;47.998;7.794;2023-01-28T07:32:23;99654.00;;;0.47;100.00
53908;BME280;40469;47.998;7.794;2023-01-28T07:34:51;99657.56;;;0.50;100.00
53908;BME280;40469;47.998;7.794;2023-01-28T07:37:16;99665.28;;;0.50;100.00
53908;BME280;40469;47.998;7.794;2023-01-28T07:39:41;99665.22;;;0.49;100.00
53908;BME280;40469;47.998;7.794;2023-01-28T07:42:07;99668.84;;;0.54;100.00
53908;BME280;40469;47.998;7.794;2023-01-28T07:44:32;99667.09;;;0.53;100.00
53908;BME280;40469;47.998;7.794;2023-01-28T07:46:59;99665.56;;;0.56;100.00
53908;BME280;40469;47.998;7.794;2023-01-28T07:49:25;99670.56;;;0.53;100.00
53908;BME280;40469;47.998;7.794;2023-01-28T07:51:50;99674.06;;;0.55;100.00
53908;BME280;40469;47.998;7.794;2023-01-28T07:54:16;99669.88;;;0.57;100.00
53908;BME280;40469;47.998;7.794;2023-01-28T07:56:41;99674.31;;;0.62;100.00
53908;BME280;40469;47.998;7.794;2023-01-28T07:59:07;99671.88;;;0.65;100.00
53908;BME280;40469;47.998;7.794;2023-01-28T08:01:32;99679.78;;;0.69;100.00
53908;BME280;40469;47.998;7.794;2023-01-28T08:03:57;99680.72;;;0.71;100.00
53908;BME280;40469;47.998;7.794;2023-01-28T08:06:23;99681.66;;;0.73;100.00
53908;BME280;40469;47.998;7.794;2023-01-28T08:08:48;99685.16;;;0.75;100.00
53908;BME280;40469;47.998;7.794;2023-01-28T08:11:13;99687.72;;;0.75;100.00
53908;BME280;40469;47.998;7.794;2023-01-28T08:13:39;99687.06;;;0.80;100.00
53908;BME280;40469;47.998;7.794;2023-01-28T08:16:04;99683.78;;;0.84;100.00
53908;BME280;40469;47.998;7.794;2023-01-28T08:18:30;99696.63;;;0.84;100.00
53908;BME280;40469;47.998;7.794;2023-01-28T08:20:57;99692.31;;;0.83;100.00
53908;BME280;40469;47.998;7.794;2023-01-28T08:23:23;99696.56;;;0.82;100.00
53908;BME280;40469;47.998;7.794;2023-01-28T08:25:51;99699.16;;;0.82;100.00
53908;BME280;40469;47.998;7.794;2023-01-28T08:28:16;99701.72;;;0.82;100.00
53908;BME280;40469;47.998;7.794;2023-01-28T08:30:42;99700.97;;;0.85;100.00
53908;BME280;40469;47.998;7.794;2023-01-28T08:33:10;99706.16;;;0.86;100.00
53908;BME280;40469;47.998;7.794;2023-01-28T08:35:35;99704.59;;;0.90;100.00
53908;BME280;40469;47.998;7.794;2023-01-28T08:38:02;99701.22;;;0.91;100.00
53908;BME280;40469;47.998;7.794;2023-01-28T08:40:29;99709.13;;;0.96;100.00
53908;BME280;40469;47.998;7.794;2023-01-28T08:42:54;99707.56;;;0.99;100.00
53908;BME280;40469;47.998;7.794;2023-01-28T08:45:22;99710.13;;;0.99;100.00
53908;BME280;40469;47.998;7.794;2023-01-28T08:47:55;99707.78;;;1.05;100.00
53908;BME280;40469;47.998;7.794;2023-01-28T08:50:22;99707.84;;;1.07;100.00
53908;BME280;40469;47.998;7.794;2023-01-28T08:52:47;99715.75;;;1.11;100.00
53908;BME280;40469;47.998;7.794;2023-01-28T08:55:14;99706.34;;;1.12;100.00
53908;BME280;40469;47.998;7.794;2023-01-28T08:57:40;99709.09;;;1.17;100.00
53908;BME280;40469;47.998;7.794;2023-01-28T09:00:07;99708.34;;;1.19;100.00
53908;BME280;40469;47.998;7.794;2023-01-28T09:02:35;99718.88;;;1.25;100.00
53908;BME280;40469;47.998;7.794;2023-01-28T09:05:01;99707.03;;;1.29;100.00
53908;BME280;40469;47.998;7.794;2023-01-28T09:07:26;99706.19;;;1.75;100.00
53908;BME280;40469;47.998;7.794;2023-01-28T09:09:52;99712.63;;;1.64;100.00
53908;BME280;40469;47.998;7.794;2023-01-28T09:12:17;99720.94;;;1.57;100.00
53908;BME280;40469;47.998;7.794;2023-01-28T09:14:43;99723.09;;;1.46;100.00
53908;BME280;40469;47.998;7.794;2023-01-28T09:17:08;99719.94;;;1.53;100.00
53908;BME280;40469;47.998;7.794;2023-01-28T09:19:33;99725.94;;;1.52;100.00
53908;BME280;40469;47.998;7.794;2023-01-28T09:21:59;99722.28;;;1.47;100.00
53908;BME280;40469;47.998;7.794;2023-01-28T09:24:24;99727.50;;;1.48;100.00
53908;BME280;40469;47.998;7.794;2023-01-28T09:26:49;99728.13;;;1.43;100.00
53908;BME280;40469;47.998;7.794;2023-01-28T09:29:15;99725.81;;;1.49;100.00
53908;BME280;40469;47.998;7.794;2023-01-28T09:31:41;99725.09;;;1.53;100.00
53908;BME280;40469;47.998;7.794;2023-01-28T09:34:07;99718.22;;;1.52;100.00
53908;BME280;40469;47.998;7.794;2023-01-28T09:36:32;99731.16;;;1.55;100.00
53908;BME280;40469;47.998;7.794;2023-01-28T09:38:57;99733.06;;;1.59;100.00
53908;BME280;40469;47.998;7.794;2023-01-28T09:44:09;99742.72;;;1.65;100.00
53908;BME280;40469;47.998;7.794;2023-01-28T09:46:39;99734.00;;;1.61;100.00
53908;BME280;40469;47.998;7.794;2023-01-28T09:49:33;99739.25;;;1.64;100.00
53908;BME280;40469;47.998;7.794;2023-01-28T09:51:59;99716.03;;;1.63;100.00
53908;BME280;40469;47.998;7.794;2023-01-28T09:54:41;99731.69;;;1.69;100.00
53908;BME280;40469;47.998;7.794;2023-01-28T09:57:26;99729.31;;;1.74;100.00
53908;BME280;40469;47.998;7.794;2023-01-28T09:59:54;99728.38;;;1.72;100.00
53908;BME280;40469;47.998;7.794;2023-01-28T10:13:51;99741.63;;;2.05;100.00
53908;BME280;40469;47.998;7.794;2023-01-28T10:16:35;99734.84;;;2.07;100.00
53908;BME280;40469;47.998;7.794;2023-01-28T10:19:16;99731.47;;;2.09;100.00
53908;BME280;40469;47.998;7.794;2023-01-28T10:21:54;99737.81;;;2.18;100.00
53908;BME280;40469;47.998;7.794;2023-01-28T10:26:53;99731.66;;;2.14;100.00
53908;BME280;40469;47.998;7.794;2023-01-28T10:29:23;99734.38;;;2.19;100.00
53908;BME280;40469;47.998;7.794;2023-01-28T10:31:52;99737.13;;;2.23;100.00
53908;BME280;40469;47.998;7.794;2023-01-28T10:34:18;99733.03;;;2.28;100.00
53908;BME280;40469;47.998;7.794;2023-01-28T10:36:45;99721.63;;;2.22;100.00
53908;BME280;40469;47.998;7.794;2023-01-28T10:39:14;99725.41;;;2.32;100.00
53908;BME280;40469;47.998;7.794;2023-01-28T10:41:41;99730.84;;;2.39;100.00
53908;BME280;40469;47.998;7.794;2023-01-28T10:44:15;99732.06;;;2.49;100.00
53908;BME280;40469;47.998;7.794;2023-01-28T10:46:44;99717.06;;;2.63;100.00
53908;BME280;40469;47.998;7.794;2023-01-28T10:49:25;99711.53;;;2.78;100.00
53908;BME280;40469;47.998;7.794;2023-01-28T10:51:51;99713.13;;;3.27;100.00
53908;BME280;40469;47.998;7.794;2023-01-28T10:54:22;99714.66;;;3.49;100.00
53908;BME280;40469;47.998;7.794;2023-01-28T10:56:50;99703.06;;;3.64;100.00
53908;BME280;40469;47.998;7.794;2023-01-28T10:59:32;99709.97;;;3.65;100.00
53908;BME280;40469;47.998;7.794;2023-01-28T11:02:00;99715.38;;;3.74;100.00
53908;BME280;40469;47.998;7.794;2023-01-28T11:04:30;99694.63;;;3.69;100.00
53908;BME280;40469;47.998;7.794;2023-01-28T11:07:05;99692.44;;;3.54;100.00
53908;BME280;40469;47.998;7.794;2023-01-28T11:09:36;99698.72;;;3.93;100.00
53908;BME280;40469;47.998;7.794;2023-01-28T11:12:23;99697.16;;;4.62;100.00
53908;BME280;40469;47.998;7.794;2023-01-28T11:14:54;99684.97;;;5.29;100.00
53908;BME280;40469;47.998;7.794;2023-01-28T11:17:21;99685.94;;;5.72;100.00
53908;BME280;40469;47.998;7.794;2023-01-28T11:19:50;99681.03;;;5.84;100.00
53908;BME280;40469;47.998;7.794;2023-01-28T11:25:01;99669.91;;;5.90;100.00
53908;BME280;40469;47.998;7.794;2023-01-28T11:27:30;99684.38;;;6.69;100.00
53908;BME280;40469;47.998;7.794;2023-01-28T11:29:58;99676.06;;;6.39;100.00
53908;BME280;40469;47.998;7.794;2023-01-28T11:32:27;99682.59;;;5.78;100.00
53908;BME280;40469;47.998;7.794;2023-01-28T11:34:55;99679.19;;;5.01;100.00
53908;BME280;40469;47.998;7.794;2023-01-28T11:37:26;99687.75;;;5.00;100.00
53908;BME280;40469;47.998;7.794;2023-01-28T11:40:17;99685.81;;;4.56;100.00
53908;BME280;40469;47.998;7.794;2023-01-28T11:42:46;99687.16;;;4.42;100.00
53908;BME280;40469;47.998;7.794;2023-01-28T11:45:38;99686.06;;;4.34;100.00
53908;BME280;40469;47.998;7.794;2023-01-28T11:51:44;99677.00;;;3.56;100.00
53908;BME280;40469;47.998;7.794;2023-01-28T12:00:34;99686.53;;;3.87;100.00
53908;BME280;40469;47.998;7.794;2023-01-28T12:03:12;99680.53;;;3.88;100.00
53908;BME280;40469;47.998;7.794;2023-01-28T12:05:56;99675.97;;;3.79;100.00
53908;BME280;40469;47.998;7.794;2023-01-28T12:08:27;99685.25;;;3.73;100.00
53908;BME280;40469;47.998;7.794;2023-01-28T12:13:47;99669.28;;;3.57;100.00
53908;BME280;40469;47.998;7.794;2023-01-28T12:19:08;99675.25;;;3.55;100.00
53908;BME280;40469;47.998;7.794;2023-01-28T12:21:42;99677.31;;;3.67;100.00
53908;BME280;40469;47.998;7.794;2023-01-28T12:27:10;99677.91;;;3.58;100.00
53908;BME280;40469;47.998;7.794;2023-01-28T12:35:30;99679.56;;;3.56;100.00
53908;BME280;40469;47.998;7.794;2023-01-28T12:43:07;99678.50;;;3.20;100.00
53908;BME280;40469;47.998;7.794;2023-01-28T12:45:40;99677.09;;;3.03;100.00
53908;BME280;40469;47.998;7.794;2023-01-28T12:48:11;99680.06;;;3.15;100.00
53908;BME280;40469;47.998;7.794;2023-01-28T12:50:50;99685.22;;;3.15;100.00
53908;BME280;40469;47.998;7.794;2023-01-28T12:53:32;99687.56;;;3.08;100.00
53908;BME280;40469;47.998;7.794;2023-01-28T12:56:16;99686.81;;;3.12;100.00
53908;BME280;40469;47.998;7.794;2023-01-28T12:58:48;99682.53;;;3.12;100.00
53908;BME280;40469;47.998;7.794;2023-01-28T13:01:20;99693.88;;;3.17;100.00
53908;BME280;40469;47.998;7.794;2023-01-28T13:03:52;99682.63;;;3.15;100.00
53908;BME280;40469;47.998;7.794;2023-01-28T13:06:34;99684.19;;;3.10;100.00
53908;BME280;40469;47.998;7.794;2023-01-28T13:09:14;99680.00;;;3.14;100.00
53908;BME280;40469;47.998;7.794;2023-01-28T13:11:41;99689.28;;;3.07;100.00
53908;BME280;40469;47.998;7.794;2023-01-28T13:14:09;99693.44;;;3.03;100.00
53908;BME280;40469;47.998;7.794;2023-01-28T13:16:36;99689.28;;;3.07;100.00
53908;BME280;40469;47.998;7.794;2023-01-28T13:19:53;99691.19;;;3.13;100.00
53908;BME280;40469;47.998;7.794;2023-01-28T13:21:53;99684.25;;;3.12;100.00
53908;BME280;40469;47.998;7.794;2023-01-28T13:24:21;99701.19;;;3.03;100.00
53908;BME280;40469;47.998;7.794;2023-01-28T13:26:56;99693.19;;;2.96;100.00
53908;BME280;40469;47.998;7.794;2023-01-28T13:31:52;99691.09;;;2.84;100.00
53908;BME280;40469;47.998;7.794;2023-01-28T13:34:42;99686.97;;;2.89;100.00
53908;BME280;40469;47.998;7.794;2023-01-28T13:37:30;99687.84;;;2.90;100.00
53908;BME280;40469;47.998;7.794;2023-01-28T13:40:29;99693.25;;;2.97;100.00
53908;BME280;40469;47.998;7.794;2023-01-28T13:43:05;99706.16;;;2.97;100.00
53908;BME280;40469;47.998;7.794;2023-01-28T13:45:31;99707.75;;;2.94;100.00
53908;BME280;40469;47.998;7.794;2023-01-28T13:50:51;99708.69;;;2.96;100.00
53908;BME280;40469;47.998;7.794;2023-01-28T13:55:52;99706.97;;;2.96;100.00
53908;BME280;40469;47.998;7.794;2023-01-28T13:59:02;99706.09;;;2.96;100.00
53908;BME280;40469;47.998;7.794;2023-01-28T14:01:54;99722.56;;;2.99;100.00
53908;BME280;40469;47.998;7.794;2023-01-28T14:09:45;99719.78;;;2.93;100.00
53908;BME280;40469;47.998;7.794;2023-01-28T14:20:03;99729.88;;;2.87;100.00
53908;BME280;40469;47.998;7.794;2023-01-28T14:22:29;99725.69;;;2.91;100.00
53908;BME280;40469;47.998;7.794;2023-01-28T14:24:56;99735.16;;;2.90;100.00
53908;BME280;40469;47.998;7.794;2023-01-28T14:27:29;99731.72;;;2.90;100.00
53908;BME280;40469;47.998;7.794;2023-01-28T14:32:47;99734.06;;;2.83;100.00
53908;BME280;40469;47.998;7.794;2023-01-28T14:35:33;99746.19;;;2.86;100.00
53908;BME280;40469;47.998;7.794;2023-01-28T14:38:05;99744.72;;;2.94;100.00
53908;BME280;40469;47.998;7.794;2023-01-28T14:40:32;99747.25;;;2.93;100.00
53908;BME280;40469;47.998;7.794;2023-01-28T14:43:02;99751.59;;;2.94;100.00